createdAt,value
2023-01-12T00:01:41.294Z,1.91
2023-01-12T00:04:04.530Z,2.02
2023-01-12T00:06:27.154Z,1.79
2023-01-12T00:08:51.559Z,1.92
2023-01-12T00:11:16.858Z,2.00
2023-01-12T00:13:39.525Z,2.10
2023-01-12T00:16:22.957Z,2.27
2023-01-12T00:18:47.770Z,2.20
2023-01-12T00:21:10.934Z,2.21
2023-01-12T00:23:33.590Z,2.36
2023-01-12T00:25:56.195Z,2.38
2023-01-12T00:28:18.885Z,2.33
2023-01-12T00:30:41.483Z,2.10
2023-01-12T00:33:04.103Z,1.92
2023-01-12T00:35:26.803Z,1.92
2023-01-12T00:37:49.731Z,2.09
2023-01-12T00:40:13.636Z,2.19
2023-01-12T00:42:54.419Z,2.13
2023-01-12T00:45:23.540Z,1.98
2023-01-12T00:47:46.286Z,1.93
2023-01-12T00:50:09.904Z,1.91
2023-01-12T00:52:32.781Z,1.99
2023-01-12T00:54:55.510Z,2.02
2023-01-12T00:57:19.433Z,2.02
2023-01-12T00:59:44.662Z,2.20
2023-01-12T01:02:07.338Z,2.50
2023-01-12T01:04:30.091Z,2.65
2023-01-12T01:06:52.687Z,2.89
2023-01-12T01:09:15.359Z,3.17
2023-01-12T01:11:38.226Z,3.24
2023-01-12T01:14:02.130Z,2.96
2023-01-12T01:16:25.224Z,3.02
2023-01-12T01:18:48.129Z,3.07
2023-01-12T01:21:11.990Z,3.34
2023-01-12T01:23:36.447Z,3.09
2023-01-12T01:26:06.991Z,3.22
2023-01-12T01:28:29.734Z,3.09
2023-01-12T01:30:52.368Z,3.13
2023-01-12T01:33:15.163Z,3.09
2023-01-12T01:35:37.810Z,3.03
2023-01-12T01:38:00.440Z,3.09
2023-01-12T01:40:23.405Z,3.06
2023-01-12T01:42:46.015Z,3.07
2023-01-12T01:45:13.363Z,3.26
2023-01-12T01:47:46.363Z,3.26
2023-01-12T01:50:23.127Z,3.15
2023-01-12T01:52:51.506Z,3.48
2023-01-12T01:55:57.302Z,3.65
2023-01-12T01:58:50.673Z,3.50
2023-01-12T02:01:13.351Z,3.30
2023-01-12T02:03:37.518Z,3.09
2023-01-12T02:06:00.696Z,2.93
2023-01-12T02:08:40.886Z,2.95
2023-01-12T02:11:03.745Z,3.05
2023-01-12T02:13:47.881Z,3.40
2023-01-12T02:16:21.383Z,3.36
2023-01-12T02:18:51.096Z,3.43
2023-01-12T02:21:28.197Z,3.63
2023-01-12T02:24:27.694Z,3.68
2023-01-12T02:27:38.624Z,3.82
2023-01-12T02:30:35.223Z,3.82
2023-01-12T02:33:45.228Z,3.84
2023-01-12T02:36:31.105Z,3.74
2023-01-12T02:39:06.075Z,3.61
2023-01-12T02:41:57.947Z,3.46
2023-01-12T02:44:30.091Z,3.63
2023-01-12T02:46:53.107Z,3.84
2023-01-12T02:49:19.691Z,3.88
2023-01-12T02:51:55.386Z,3.98
2023-01-12T02:54:20.733Z,4.10
2023-01-12T02:56:53.476Z,4.20
2023-01-12T02:59:24.869Z,4.28
2023-01-12T03:01:51.255Z,4.28
2023-01-12T03:04:17.604Z,4.32
2023-01-12T03:07:00.510Z,4.29
2023-01-12T03:09:43.183Z,4.30
2023-01-12T03:12:10.123Z,4.44
2023-01-12T03:14:36.493Z,4.29
2023-01-12T03:17:01.113Z,4.26
2023-01-12T03:19:33.665Z,4.16
2023-01-12T03:22:02.842Z,4.01
2023-01-12T03:24:28.549Z,3.85
2023-01-12T03:26:55.890Z,3.91
2023-01-12T03:29:40.228Z,3.91
2023-01-12T03:32:03.996Z,3.74
2023-01-12T03:34:28.115Z,3.85
2023-01-12T03:37:36.969Z,3.99
2023-01-12T03:40:10.849Z,4.09
2023-01-12T03:43:12.778Z,4.10
2023-01-12T03:46:11.596Z,4.12
2023-01-12T03:48:52.492Z,4.12
2023-01-12T03:51:27.532Z,4.03
2023-01-12T03:53:52.130Z,4.03
2023-01-12T03:56:17.715Z,4.03
2023-01-12T03:58:41.271Z,3.91
2023-01-12T04:01:04.834Z,3.82
2023-01-12T04:03:27.752Z,3.68
2023-01-12T04:05:50.363Z,3.63
2023-01-12T04:08:15.836Z,3.61
2023-01-12T04:10:38.466Z,3.48
2023-01-12T04:13:01.057Z,3.53
2023-01-12T04:15:23.677Z,3.50
2023-01-12T04:17:46.560Z,3.48
2023-01-12T04:20:11.021Z,3.55
2023-01-12T04:22:43.522Z,3.55
2023-01-12T04:25:08.667Z,3.51
2023-01-12T04:27:32.140Z,3.63
2023-01-12T04:29:55.036Z,3.70
2023-01-12T04:32:17.738Z,3.70
2023-01-12T04:34:40.424Z,3.74
2023-01-12T04:37:03.804Z,3.75
2023-01-12T04:39:26.439Z,3.73
2023-01-12T04:41:49.139Z,3.96
2023-01-12T04:44:11.988Z,3.84
2023-01-12T04:46:34.625Z,3.81
2023-01-12T04:48:57.371Z,3.71
2023-01-12T04:51:20.052Z,3.71
2023-01-12T04:53:42.782Z,3.79
2023-01-12T04:56:06.944Z,3.73
2023-01-12T04:58:29.569Z,3.81
2023-01-12T05:00:52.282Z,3.79
2023-01-12T05:03:15.557Z,3.89
2023-01-12T05:05:38.133Z,3.78
2023-01-12T05:08:31.133Z,3.78
2023-01-12T05:10:56.515Z,3.95
2023-01-12T05:13:19.350Z,3.99
2023-01-12T05:15:42.003Z,4.02
2023-01-12T05:18:04.831Z,3.95
2023-01-12T05:20:27.474Z,3.92
2023-01-12T05:22:51.480Z,4.05
2023-01-12T05:25:15.260Z,4.02
2023-01-12T05:27:38.154Z,3.98
2023-01-12T05:30:00.976Z,3.82
2023-01-12T05:32:24.235Z,3.81
2023-01-12T05:34:47.856Z,3.84
2023-01-12T05:37:10.446Z,3.86
2023-01-12T05:39:34.728Z,3.95
2023-01-12T05:42:20.443Z,3.98
2023-01-12T05:44:43.374Z,3.99
2023-01-12T05:47:06.059Z,4.14
2023-01-12T05:49:28.637Z,4.23
2023-01-12T05:51:51.593Z,4.22
2023-01-12T05:54:14.275Z,4.07
2023-01-12T05:56:36.913Z,4.05
2023-01-12T05:59:02.033Z,4.10
2023-01-12T06:01:25.313Z,4.02
2023-01-12T06:03:53.073Z,3.92
2023-01-12T06:06:15.903Z,4.14
2023-01-12T06:08:38.584Z,4.16
2023-01-12T06:11:03.117Z,4.17
2023-01-12T06:13:44.590Z,4.12
2023-01-12T06:16:09.373Z,4.22
2023-01-12T06:18:39.710Z,4.20
2023-01-12T06:21:03.851Z,4.39
2023-01-12T06:23:35.327Z,4.43
2023-01-12T06:26:03.118Z,4.30
2023-01-12T06:28:27.044Z,4.39
2023-01-12T06:30:58.620Z,4.37
2023-01-12T06:33:21.624Z,4.49
2023-01-12T06:35:49.224Z,4.58
2023-01-12T06:38:11.999Z,4.56
2023-01-12T06:40:34.652Z,4.50
2023-01-12T06:42:57.321Z,4.49
2023-01-12T06:45:20.267Z,4.57
2023-01-12T06:47:47.618Z,4.61
2023-01-12T06:50:11.022Z,4.62
2023-01-12T06:52:34.160Z,4.57
2023-01-12T06:55:01.583Z,4.70
2023-01-12T06:57:24.543Z,4.78
2023-01-12T06:59:47.521Z,4.62
2023-01-12T07:02:15.525Z,4.77
2023-01-12T07:04:38.825Z,4.78
2023-01-12T07:07:01.633Z,4.78
2023-01-12T07:09:24.409Z,4.67
2023-01-12T07:11:47.245Z,4.71
2023-01-12T07:14:09.878Z,5.05
2023-01-12T07:16:33.522Z,5.16
2023-01-12T07:18:56.462Z,5.23
2023-01-12T07:21:19.830Z,5.23
2023-01-12T07:23:43.727Z,5.36
2023-01-12T07:26:06.578Z,5.36
2023-01-12T07:28:31.423Z,5.27
2023-01-12T07:30:59.553Z,5.16
2023-01-12T07:33:22.318Z,5.16
2023-01-12T07:35:45.289Z,5.26
2023-01-12T07:38:08.629Z,5.22
2023-01-12T07:40:31.258Z,5.04
2023-01-12T07:43:05.098Z,4.99
2023-01-12T07:45:29.168Z,4.79
2023-01-12T07:47:56.038Z,4.79
2023-01-12T07:50:19.195Z,4.75
2023-01-12T07:52:42.133Z,5.04
2023-01-12T07:55:06.172Z,5.08
2023-01-12T07:57:29.518Z,5.30
2023-01-12T07:59:52.454Z,5.54
2023-01-12T08:02:19.441Z,5.33
2023-01-12T08:04:47.074Z,5.42
2023-01-12T08:07:15.003Z,5.54
2023-01-12T08:09:40.669Z,5.64
2023-01-12T08:12:06.227Z,5.83
2023-01-12T08:14:33.993Z,5.88
2023-01-12T08:17:01.502Z,6.11
2023-01-12T08:19:32.194Z,6.25
2023-01-12T08:21:59.536Z,6.43
2023-01-12T08:24:25.329Z,6.61
2023-01-12T08:26:50.892Z,6.85
2023-01-12T08:29:20.422Z,7.11
2023-01-12T08:31:44.045Z,7.23
2023-01-12T08:34:08.497Z,7.07
2023-01-12T08:36:31.911Z,7.12
2023-01-12T08:38:56.417Z,7.15
2023-01-12T08:41:35.344Z,7.33
2023-01-12T08:44:02.063Z,7.42
2023-01-12T08:46:24.972Z,7.36
2023-01-12T08:48:47.819Z,7.45
2023-01-12T08:51:10.643Z,7.35
2023-01-12T08:53:33.867Z,7.50
2023-01-12T08:55:57.209Z,7.49
2023-01-12T08:58:20.082Z,7.32
2023-01-12T09:00:42.865Z,7.50
2023-01-12T09:03:05.693Z,7.30
2023-01-12T09:05:28.377Z,7.45
2023-01-12T09:07:52.260Z,7.15
2023-01-12T09:10:15.697Z,7.37
2023-01-12T09:12:38.573Z,7.57
2023-01-12T09:15:01.237Z,7.60
2023-01-12T09:17:24.340Z,7.60
2023-01-12T09:19:49.993Z,7.35
2023-01-12T09:22:12.762Z,7.52
2023-01-12T09:24:37.614Z,7.55
2023-01-12T09:27:01.430Z,7.63
2023-01-12T09:29:24.446Z,7.63
2023-01-12T09:31:47.400Z,7.36
2023-01-12T09:34:11.053Z,7.36
2023-01-12T09:36:37.346Z,7.26
2023-01-12T09:39:01.575Z,7.47
2023-01-12T09:41:49.847Z,7.59
2023-01-12T09:45:01.865Z,7.57
2023-01-12T09:47:52.727Z,7.59
2023-01-12T09:50:22.433Z,7.64
2023-01-12T09:53:11.682Z,7.81
2023-01-12T09:56:15.169Z,7.85
2023-01-12T09:58:53.254Z,7.94
2023-01-12T10:01:28.884Z,8.11
2023-01-12T10:03:53.251Z,8.18
2023-01-12T10:06:19.184Z,8.09
2023-01-12T10:08:44.453Z,8.22
2023-01-12T10:11:37.800Z,8.24
2023-01-12T10:14:19.680Z,8.48
2023-01-12T10:17:03.355Z,8.79
2023-01-12T10:19:50.679Z,8.87
2023-01-12T10:22:37.824Z,8.98
2023-01-12T10:25:00.683Z,8.85
2023-01-12T10:27:23.324Z,8.77
2023-01-12T10:29:47.059Z,8.69
2023-01-12T10:32:12.523Z,8.62
2023-01-12T10:34:55.533Z,8.70
2023-01-12T10:37:18.572Z,8.80
2023-01-12T10:39:44.491Z,8.56
2023-01-12T10:42:41.783Z,8.76
2023-01-12T10:45:20.975Z,8.84
2023-01-12T10:47:45.623Z,8.88
2023-01-12T10:50:42.708Z,8.91
2023-01-12T10:53:13.951Z,8.83
2023-01-12T10:55:40.273Z,9.05
2023-01-12T10:58:03.010Z,9.07
2023-01-12T11:00:27.922Z,9.11
2023-01-12T11:02:51.134Z,8.97
2023-01-12T11:05:35.564Z,9.24
2023-01-12T11:08:00.224Z,9.15
2023-01-12T11:10:29.994Z,9.28
2023-01-12T11:12:59.147Z,8.91
2023-01-12T11:15:22.044Z,8.90
2023-01-12T11:18:07.775Z,9.24
2023-01-12T11:20:34.824Z,9.25
2023-01-12T11:23:01.955Z,9.25
2023-01-12T11:25:26.503Z,9.04
2023-01-12T11:28:01.950Z,8.98
2023-01-12T11:30:34.477Z,9.18
2023-01-12T11:33:09.943Z,9.28
2023-01-12T11:35:45.663Z,9.29
2023-01-12T11:38:16.023Z,9.42
2023-01-12T11:40:40.042Z,9.34
2023-01-12T11:43:42.312Z,9.50
2023-01-12T11:46:35.997Z,9.36
2023-01-12T11:49:01.922Z,9.38
2023-01-12T11:51:24.904Z,9.66
2023-01-12T11:53:47.804Z,9.76
2023-01-12T11:56:43.666Z,9.56
2023-01-12T11:59:15.901Z,9.59
2023-01-12T12:02:10.900Z,9.38
2023-01-12T12:04:43.058Z,9.60
2023-01-12T12:07:05.577Z,9.52
2023-01-12T12:09:43.180Z,9.34
2023-01-12T12:12:16.123Z,9.27
2023-01-12T12:15:16.114Z,9.17
2023-01-12T12:18:00.540Z,9.19
2023-01-12T12:20:33.175Z,9.38
2023-01-12T12:23:14.480Z,9.25
2023-01-12T12:25:59.176Z,9.22
2023-01-12T12:28:29.434Z,9.32
2023-01-12T12:31:13.870Z,9.28
2023-01-12T12:33:36.727Z,9.01
2023-01-12T12:36:02.899Z,9.12
2023-01-12T12:38:42.240Z,8.92
2023-01-12T12:41:49.516Z,9.10
2023-01-12T12:45:06.636Z,9.07
2023-01-12T12:48:02.947Z,9.24
2023-01-12T12:50:27.938Z,9.12
2023-01-12T12:53:15.047Z,9.03
2023-01-12T12:55:39.642Z,9.11
2023-01-12T12:58:06.544Z,9.17
2023-01-12T13:00:42.784Z,9.19
2023-01-12T13:03:05.678Z,9.25
2023-01-12T13:05:48.402Z,9.34
2023-01-12T13:08:25.918Z,9.10
2023-01-12T13:10:58.936Z,9.11
2023-01-12T13:13:29.598Z,9.29
2023-01-12T13:16:14.941Z,9.10
2023-01-12T13:18:53.140Z,9.07
2023-01-12T13:21:58.141Z,9.14
2023-01-12T13:24:41.869Z,9.08
2023-01-12T13:27:43.117Z,8.87
2023-01-12T13:30:32.128Z,8.80
2023-01-12T13:33:14.697Z,8.87
2023-01-12T13:35:38.909Z,8.81
2023-01-12T13:38:11.985Z,8.66
2023-01-12T13:40:34.968Z,8.66
2023-01-12T13:43:15.409Z,8.63
2023-01-12T13:45:38.253Z,8.56
2023-01-12T13:48:01.168Z,8.41
2023-01-12T13:50:27.642Z,8.35
2023-01-12T13:53:01.688Z,8.45
2023-01-12T13:55:28.093Z,8.57
2023-01-12T13:58:07.159Z,8.71
2023-01-12T14:00:32.376Z,8.53
2023-01-12T14:02:56.337Z,8.45
2023-01-12T14:05:29.073Z,8.54
2023-01-12T14:08:32.247Z,8.41
2023-01-12T14:11:14.344Z,8.49
2023-01-12T14:14:26.163Z,8.70
2023-01-12T14:17:41.389Z,8.69
2023-01-12T14:20:15.203Z,8.88
2023-01-12T14:22:38.113Z,8.83
2023-01-12T14:25:22.072Z,8.76
2023-01-12T14:27:56.261Z,8.80
2023-01-12T14:30:20.030Z,8.64
2023-01-12T14:32:44.922Z,8.52
2023-01-12T14:35:16.023Z,8.49
2023-01-12T14:37:39.243Z,8.39
2023-01-12T14:40:02.331Z,8.35
2023-01-12T14:42:43.569Z,8.05
2023-01-12T14:45:36.627Z,8.04
2023-01-12T14:48:26.095Z,7.90
2023-01-12T14:51:19.985Z,7.70
2023-01-12T14:53:46.031Z,7.70
2023-01-12T14:56:25.378Z,7.45
2023-01-12T14:58:49.028Z,7.19
2023-01-12T15:01:12.150Z,6.99
2023-01-12T15:03:43.080Z,6.88
2023-01-12T15:06:06.663Z,6.83
2023-01-12T15:08:30.949Z,6.81
2023-01-12T15:11:11.851Z,6.84
2023-01-12T15:13:36.464Z,6.74
2023-01-12T15:16:19.029Z,6.58
2023-01-12T15:19:00.716Z,6.44
2023-01-12T15:21:43.134Z,6.39
2023-01-12T15:24:45.471Z,6.21
2023-01-12T15:27:09.194Z,6.22
2023-01-12T15:29:32.112Z,6.37
2023-01-12T15:31:54.952Z,6.42
2023-01-12T15:34:17.980Z,6.36
2023-01-12T15:36:40.639Z,6.22
2023-01-12T15:39:03.311Z,6.02
2023-01-12T15:41:47.626Z,5.84
2023-01-12T15:44:18.738Z,6.02
2023-01-12T15:46:42.567Z,6.09
2023-01-12T15:49:05.844Z,6.09
2023-01-12T15:51:28.493Z,6.09
2023-01-12T15:53:51.315Z,5.98
2023-01-12T15:56:15.458Z,5.94
2023-01-12T15:58:38.141Z,5.91
2023-01-12T16:01:00.890Z,5.95
2023-01-12T16:03:54.641Z,5.87
2023-01-12T16:06:06.697Z,5.83
2023-01-12T16:08:29.270Z,5.77
2023-01-12T16:11:12.134Z,5.88
2023-01-12T16:13:35.199Z,5.79
2023-01-12T16:15:57.711Z,5.71
2023-01-12T16:18:20.378Z,5.74
2023-01-12T16:20:43.148Z,5.74
2023-01-12T16:23:06.012Z,5.78
2023-01-12T16:25:28.523Z,5.81
2023-01-12T16:27:51.332Z,5.70
2023-01-12T16:30:15.748Z,5.50
2023-01-12T16:32:38.528Z,5.39
2023-01-12T16:35:01.426Z,5.25
2023-01-12T16:37:27.564Z,5.20
2023-01-12T16:39:50.300Z,5.13
2023-01-12T16:42:13.123Z,5.11
2023-01-12T16:44:37.884Z,5.20
2023-01-12T16:47:00.604Z,5.37
2023-01-12T16:49:23.259Z,5.43
2023-01-12T16:51:46.387Z,5.42
2023-01-12T16:54:09.067Z,5.35
2023-01-12T16:56:32.027Z,5.44
2023-01-12T16:58:54.943Z,5.44
2023-01-12T17:01:21.822Z,5.42
2023-01-12T17:03:44.836Z,5.40
2023-01-12T17:06:16.587Z,5.42
2023-01-12T17:08:39.985Z,5.43
2023-01-12T17:11:11.324Z,5.39
2023-01-12T17:13:33.962Z,5.47
2023-01-12T17:15:56.769Z,5.48
2023-01-12T17:18:19.946Z,5.44
2023-01-12T17:20:42.729Z,5.48
2023-01-12T17:23:05.647Z,5.42
2023-01-12T17:25:28.984Z,5.53
2023-01-12T17:27:51.765Z,5.46
2023-01-12T17:30:14.859Z,5.35
2023-01-12T17:32:41.019Z,5.27
2023-01-12T17:35:09.546Z,5.23
2023-01-12T17:37:33.725Z,5.29
2023-01-12T17:39:59.236Z,5.26
2023-01-12T17:42:45.351Z,5.25
2023-01-12T17:45:08.542Z,5.23
2023-01-12T17:47:31.402Z,5.26
2023-01-12T17:49:54.784Z,5.13
2023-01-12T17:52:18.175Z,5.11
2023-01-12T17:54:41.890Z,5.13
2023-01-12T17:57:04.605Z,5.15
2023-01-12T17:59:27.362Z,5.19
2023-01-12T18:01:51.188Z,5.15
2023-01-12T18:04:14.253Z,5.13
2023-01-12T18:06:36.975Z,5.12
2023-01-12T18:08:59.895Z,5.23
2023-01-12T18:11:22.667Z,5.25
2023-01-12T18:13:46.282Z,5.20
2023-01-12T18:16:11.149Z,5.19
2023-01-12T18:18:34.110Z,5.16
2023-01-12T18:21:03.800Z,5.11
2023-01-12T18:23:26.764Z,5.12
2023-01-12T18:25:49.423Z,5.02
2023-01-12T18:28:12.263Z,5.00
2023-01-12T18:30:36.981Z,4.92
2023-01-12T18:33:00.131Z,4.79
2023-01-12T18:35:22.838Z,4.79
2023-01-12T18:37:47.229Z,4.70
2023-01-12T18:40:10.729Z,4.72
2023-01-12T18:42:53.070Z,4.78
2023-01-12T18:45:17.277Z,4.72
2023-01-12T18:47:58.459Z,4.70
2023-01-12T18:50:39.933Z,4.61
2023-01-12T18:53:21.553Z,4.39
2023-01-12T18:55:45.983Z,4.28
2023-01-12T18:58:08.690Z,4.23
2023-01-12T19:00:31.816Z,4.19
2023-01-12T19:02:54.565Z,4.20
2023-01-12T19:05:23.449Z,4.32
2023-01-12T19:07:59.034Z,4.30
2023-01-12T19:10:21.916Z,4.07
2023-01-12T19:12:46.095Z,4.14
2023-01-12T19:15:28.400Z,4.29
2023-01-12T19:17:51.292Z,4.26
2023-01-12T19:20:17.528Z,4.29
2023-01-12T19:22:59.144Z,4.23
2023-01-12T19:25:42.107Z,4.29
2023-01-12T19:28:24.328Z,4.32
2023-01-12T19:30:47.738Z,4.29
2023-01-12T19:33:19.444Z,4.33
2023-01-12T19:35:43.684Z,4.29
2023-01-12T19:38:06.714Z,4.34
2023-01-12T19:40:37.035Z,4.32
2023-01-12T19:43:20.651Z,4.26
2023-01-12T19:45:45.709Z,3.98
2023-01-12T19:48:09.628Z,3.75
2023-01-12T19:50:33.529Z,3.71
2023-01-12T19:52:56.474Z,3.79
2023-01-12T19:55:19.253Z,3.86
2023-01-12T19:57:43.283Z,3.92
2023-01-12T20:00:08.799Z,3.98
2023-01-12T20:02:37.182Z,4.03
2023-01-12T20:04:59.996Z,3.95
2023-01-12T20:07:22.757Z,3.96
2023-01-12T20:09:47.134Z,3.78
2023-01-12T20:12:10.238Z,3.77
2023-01-12T20:14:32.949Z,3.84
2023-01-12T20:16:55.626Z,3.93
2023-01-12T20:19:20.613Z,4.03
2023-01-12T20:21:43.785Z,4.07
2023-01-12T20:24:06.672Z,4.07
2023-01-12T20:26:29.358Z,4.03
2023-01-12T20:28:51.929Z,3.98
2023-01-12T20:31:16.230Z,3.98
2023-01-12T20:33:39.814Z,4.02
2023-01-12T20:36:02.655Z,3.98
2023-01-12T20:38:25.381Z,3.99
2023-01-12T20:40:48.029Z,3.95
2023-01-12T20:43:10.815Z,3.93
2023-01-12T20:45:33.374Z,3.91
2023-01-12T20:47:56.332Z,3.93
2023-01-12T20:50:19.177Z,3.79
2023-01-12T20:52:42.144Z,3.54
2023-01-12T20:55:05.701Z,3.55
2023-01-12T20:57:28.831Z,3.60
2023-01-12T20:59:52.200Z,3.65
2023-01-12T21:02:20.803Z,3.50
2023-01-12T21:04:43.424Z,3.58
2023-01-12T21:07:05.974Z,3.53
2023-01-12T21:09:28.602Z,3.58
2023-01-12T21:11:51.593Z,3.50
2023-01-12T21:14:14.205Z,3.53
2023-01-12T21:16:36.995Z,3.60
2023-01-12T21:18:59.753Z,3.57
2023-01-12T21:21:22.510Z,3.65
2023-01-12T21:23:45.240Z,3.57
2023-01-12T21:26:08.488Z,3.40
2023-01-12T21:28:31.094Z,3.27
2023-01-12T21:30:53.779Z,3.33
2023-01-12T21:33:17.671Z,3.26
2023-01-12T21:35:40.726Z,3.40
2023-01-12T21:38:04.500Z,3.37
2023-01-12T21:40:28.062Z,3.41
2023-01-12T21:43:08.739Z,3.19
2023-01-12T21:45:31.443Z,3.10
2023-01-12T21:47:55.475Z,3.22
2023-01-12T21:50:18.246Z,3.13
2023-01-12T21:52:42.045Z,3.15
2023-01-12T21:55:05.398Z,2.89
2023-01-12T21:57:28.092Z,2.88
2023-01-12T21:59:51.033Z,2.78
2023-01-12T22:02:14.243Z,2.71
2023-01-12T22:04:37.094Z,2.78
2023-01-12T22:06:59.730Z,2.81
2023-01-12T22:09:23.693Z,2.85
2023-01-12T22:11:46.740Z,2.89
2023-01-12T22:14:09.474Z,2.95
2023-01-12T22:16:32.448Z,3.09
2023-01-12T22:18:55.235Z,3.17
2023-01-12T22:21:19.792Z,3.24
2023-01-12T22:23:43.020Z,3.41
2023-01-12T22:26:11.624Z,3.28
2023-01-12T22:28:35.905Z,3.20
2023-01-12T22:30:58.524Z,3.27
2023-01-12T22:33:21.154Z,3.41
2023-01-12T22:35:43.705Z,3.54
2023-01-12T22:38:06.372Z,3.73
2023-01-12T22:40:29.167Z,3.82
2023-01-12T22:43:10.380Z,3.85
2023-01-12T22:45:34.451Z,3.93
2023-01-12T22:47:57.138Z,3.86
2023-01-12T22:50:20.215Z,3.64
2023-01-12T22:52:42.941Z,3.24
2023-01-12T22:55:06.140Z,3.07
2023-01-12T22:57:28.700Z,2.95
2023-01-12T22:59:54.360Z,2.91
2023-01-12T23:02:36.212Z,2.93
2023-01-12T23:04:59.878Z,2.96
2023-01-12T23:07:22.439Z,2.93
2023-01-12T23:09:46.774Z,2.95
2023-01-12T23:12:09.287Z,3.00
2023-01-12T23:14:32.782Z,2.96
2023-01-12T23:16:55.259Z,2.93
2023-01-12T23:19:17.781Z,2.79
2023-01-12T23:21:41.380Z,2.72
2023-01-12T23:24:04.885Z,2.69
2023-01-12T23:26:31.257Z,2.66
2023-01-12T23:28:56.583Z,2.64
2023-01-12T23:31:22.144Z,2.65
2023-01-12T23:33:45.129Z,2.75
2023-01-12T23:36:13.580Z,2.65
2023-01-12T23:38:36.422Z,2.66
2023-01-12T23:40:59.417Z,2.82
2023-01-12T23:43:22.256Z,2.89
2023-01-12T23:45:44.963Z,2.74
2023-01-12T23:48:07.906Z,2.72
2023-01-12T23:50:30.749Z,2.75
2023-01-12T23:52:53.543Z,2.78
2023-01-12T23:55:16.911Z,2.65
2023-01-12T23:57:39.585Z,2.65
